createdAt,value
2023-02-14T00:02:40.024Z,73.65
2023-02-14T00:07:43.997Z,73.92
2023-02-14T00:12:47.707Z,73.85
2023-02-14T00:17:53.801Z,73.98
2023-02-14T00:22:57.759Z,73.65
2023-02-14T00:28:01.768Z,74.02
2023-02-14T00:33:05.594Z,73.79
2023-02-14T00:38:09.618Z,73.66
2023-02-14T00:43:16.198Z,73.82
2023-02-14T00:48:19.932Z,74.22
2023-02-14T00:53:23.772Z,74.04
2023-02-14T00:58:27.796Z,73.86
2023-02-14T01:03:31.776Z,73.44
2023-02-14T01:08:36.031Z,73.61
2023-02-14T01:13:41.482Z,74.38
2023-02-14T01:18:47.986Z,74.11
2023-02-14T01:23:56.823Z,74.00
2023-02-14T01:29:00.606Z,74.21
2023-02-14T01:34:06.183Z,73.82
2023-02-14T01:39:14.542Z,74.13
2023-02-14T01:44:27.405Z,73.83
2023-02-14T01:49:36.604Z,74.11
2023-02-14T01:54:47.458Z,73.96
2023-02-14T02:00:19.530Z,73.79
2023-02-14T02:05:24.715Z,73.93
2023-02-14T02:10:29.233Z,73.98
2023-02-14T02:15:45.175Z,73.90
2023-02-14T02:21:10.411Z,73.70
2023-02-14T02:27:01.781Z,74.36
2023-02-14T02:32:23.757Z,73.48
2023-02-14T02:37:27.426Z,73.47
2023-02-14T02:42:37.427Z,73.42
2023-02-14T02:47:41.403Z,73.73
2023-02-14T02:53:04.866Z,73.75
2023-02-14T02:58:10.832Z,74.14
2023-02-14T03:03:34.713Z,73.20
2023-02-14T03:08:38.484Z,73.27
2023-02-14T03:14:34.714Z,72.85
2023-02-14T03:20:17.298Z,72.96
2023-02-14T03:25:29.390Z,72.37
2023-02-14T03:31:05.560Z,72.54
2023-02-14T03:36:42.678Z,71.68
2023-02-14T03:42:14.066Z,72.45
2023-02-14T03:47:25.665Z,72.60
2023-02-14T03:52:32.221Z,72.45
2023-02-14T03:57:49.870Z,72.48
2023-02-14T04:03:03.012Z,72.15
2023-02-14T04:08:06.714Z,72.37
2023-02-14T04:13:10.799Z,71.94
2023-02-14T04:18:33.437Z,71.45
2023-02-14T04:23:37.375Z,71.55
2023-02-14T04:28:41.530Z,71.33
2023-02-14T04:33:46.681Z,71.14
2023-02-14T04:38:50.569Z,71.29
2023-02-14T04:43:54.452Z,70.82
2023-02-14T04:48:58.492Z,71.18
2023-02-14T04:54:02.430Z,70.94
2023-02-14T04:59:06.419Z,71.17
2023-02-14T05:04:10.610Z,70.93
2023-02-14T05:09:14.648Z,71.50
2023-02-14T05:14:18.511Z,71.24
2023-02-14T05:19:22.503Z,71.05
2023-02-14T05:24:26.210Z,70.58
2023-02-14T05:29:30.205Z,70.43
2023-02-14T05:34:34.279Z,70.73
2023-02-14T05:39:38.107Z,70.81
2023-02-14T05:44:42.052Z,71.21
2023-02-14T05:49:46.201Z,70.86
2023-02-14T05:54:50.051Z,70.46
2023-02-14T05:59:55.845Z,70.17
2023-02-14T06:04:59.686Z,70.59
2023-02-14T06:10:03.906Z,70.51
2023-02-14T06:15:08.159Z,70.32
2023-02-14T06:20:13.633Z,70.31
2023-02-14T06:25:18.252Z,70.41
2023-02-14T06:30:23.416Z,70.45
2023-02-14T06:35:27.445Z,70.38
2023-02-14T06:40:31.388Z,70.17
2023-02-14T06:45:35.240Z,69.91
2023-02-14T06:50:39.125Z,70.48
2023-02-14T06:55:43.876Z,70.06
2023-02-14T07:00:48.284Z,70.08
2023-02-14T07:05:53.585Z,70.19
2023-02-14T07:10:59.346Z,70.12
2023-02-14T07:16:03.796Z,70.28
2023-02-14T07:21:07.970Z,70.26
2023-02-14T07:26:12.109Z,70.12
2023-02-14T07:31:20.957Z,70.36
2023-02-14T07:36:25.092Z,70.62
2023-02-14T07:41:28.822Z,70.39
2023-02-14T07:46:33.226Z,70.43
2023-02-14T07:51:37.095Z,69.70
2023-02-14T07:56:41.179Z,69.94
2023-02-14T08:01:46.960Z,70.34
2023-02-14T08:06:50.854Z,69.79
2023-02-14T08:12:16.700Z,69.90
2023-02-14T08:17:21.612Z,68.99
2023-02-14T08:22:25.668Z,69.35
2023-02-14T08:27:29.575Z,69.80
2023-02-14T08:32:33.791Z,69.68
2023-02-14T08:37:37.834Z,69.26
2023-02-14T08:42:43.567Z,69.11
2023-02-14T08:47:47.836Z,69.48
2023-02-14T08:52:51.981Z,69.47
2023-02-14T08:57:57.930Z,68.98
2023-02-14T09:03:02.183Z,68.94
2023-02-14T09:08:06.392Z,69.22
2023-02-14T09:13:10.621Z,68.88
2023-02-14T09:18:15.108Z,69.24
2023-02-14T09:23:19.022Z,69.07
2023-02-14T09:28:22.942Z,69.29
2023-02-14T09:33:29.828Z,69.24
2023-02-14T09:38:33.742Z,69.02
2023-02-14T09:43:53.003Z,68.91
2023-02-14T09:48:58.706Z,69.12
2023-02-14T09:54:15.333Z,69.06
2023-02-14T09:59:30.235Z,69.13
2023-02-14T10:04:43.504Z,68.71
2023-02-14T10:09:59.458Z,68.85
2023-02-14T10:15:12.926Z,68.59
2023-02-14T10:20:32.879Z,68.89
2023-02-14T10:25:46.181Z,68.92
2023-02-14T10:31:20.079Z,68.97
2023-02-14T10:36:52.004Z,68.53
2023-02-14T10:42:19.897Z,68.95
2023-02-14T10:47:41.173Z,69.21
2023-02-14T10:53:06.301Z,69.07
2023-02-14T10:58:15.876Z,69.33
2023-02-14T11:03:20.035Z,69.00
2023-02-14T11:08:33.719Z,69.28
2023-02-14T11:13:39.834Z,69.47
2023-02-14T11:18:43.890Z,69.97
2023-02-14T11:23:51.465Z,69.53
2023-02-14T11:29:22.000Z,69.27
2023-02-14T11:34:32.937Z,70.30
2023-02-14T11:39:36.748Z,69.56
2023-02-14T11:44:56.691Z,69.92
2023-02-14T11:50:06.894Z,69.89
2023-02-14T11:55:36.552Z,70.22
2023-02-14T12:00:40.470Z,70.01
2023-02-14T12:05:51.056Z,69.51
2023-02-14T12:11:21.358Z,70.08
2023-02-14T12:16:54.779Z,70.08
2023-02-14T12:22:04.260Z,70.11
2023-02-14T12:27:31.084Z,69.97
2023-02-14T12:32:37.155Z,69.55
2023-02-14T12:38:30.206Z,70.49
2023-02-14T12:43:34.155Z,70.21
2023-02-14T12:48:58.956Z,70.22
2023-02-14T12:54:39.240Z,70.02
2023-02-14T13:00:10.913Z,69.97
2023-02-14T13:05:27.932Z,70.12
2023-02-14T13:11:03.142Z,70.63
2023-02-14T13:16:38.953Z,71.07
2023-02-14T13:21:45.731Z,70.92
2023-02-14T13:26:57.214Z,71.10
2023-02-14T13:32:04.568Z,71.07
2023-02-14T13:37:14.616Z,71.10
2023-02-14T13:42:49.344Z,70.96
2023-02-14T13:48:08.290Z,70.60
2023-02-14T13:53:15.270Z,70.83
2023-02-14T13:58:25.178Z,70.83
2023-02-14T14:03:28.978Z,70.45
2023-02-14T14:08:32.914Z,70.99
2023-02-14T14:13:46.754Z,70.95
2023-02-14T14:19:05.806Z,70.99
2023-02-14T14:24:31.195Z,70.94
2023-02-14T14:29:59.359Z,70.51
2023-02-14T14:35:19.572Z,70.82
2023-02-14T14:40:29.672Z,70.94
2023-02-14T14:45:34.859Z,70.67
2023-02-14T14:50:40.831Z,71.46
2023-02-14T14:55:53.764Z,71.38
2023-02-14T15:00:57.576Z,70.98
2023-02-14T15:06:17.302Z,71.00
2023-02-14T15:11:47.169Z,71.70
2023-02-14T15:17:06.472Z,71.42
2023-02-14T15:22:32.321Z,71.06
2023-02-14T15:27:40.430Z,71.23
2023-02-14T15:32:45.504Z,71.38
2023-02-14T15:37:51.223Z,71.72
2023-02-14T15:42:59.788Z,71.77
2023-02-14T15:48:22.237Z,71.43
2023-02-14T15:53:42.393Z,71.43
2023-02-14T15:58:46.880Z,71.99
2023-02-14T16:03:58.040Z,71.50
2023-02-14T16:09:01.965Z,71.81
2023-02-14T16:14:30.339Z,71.09
2023-02-14T16:19:49.039Z,71.52
2023-02-14T16:24:52.955Z,72.08
2023-02-14T16:29:56.820Z,70.89
2023-02-14T16:35:01.701Z,71.53
2023-02-14T16:40:14.318Z,71.11
2023-02-14T16:45:19.852Z,71.84
2023-02-14T16:50:23.913Z,71.15
2023-02-14T16:55:30.666Z,71.36
2023-02-14T17:00:34.566Z,71.68
2023-02-14T17:05:40.570Z,71.09
2023-02-14T17:10:48.194Z,71.67
2023-02-14T17:15:53.009Z,71.78
2023-02-14T17:20:56.919Z,71.94
2023-02-14T17:26:00.877Z,72.16
2023-02-14T17:31:04.979Z,72.18
2023-02-14T17:36:12.612Z,71.83
2023-02-14T17:41:23.184Z,71.96
2023-02-14T17:46:29.321Z,72.36
2023-02-14T17:51:33.772Z,71.92
2023-02-14T17:56:37.512Z,71.87
2023-02-14T18:01:41.555Z,71.79
2023-02-14T18:06:45.731Z,71.78
2023-02-14T18:11:50.965Z,71.40
2023-02-14T18:16:54.766Z,71.61
2023-02-14T18:21:58.632Z,71.67
2023-02-14T18:27:04.355Z,71.96
2023-02-14T18:32:08.281Z,71.68
2023-02-14T18:37:14.653Z,71.94
2023-02-14T18:42:18.514Z,71.81
2023-02-14T18:47:22.437Z,71.43
2023-02-14T18:52:26.358Z,72.19
2023-02-14T18:57:30.117Z,71.38
2023-02-14T19:02:34.691Z,71.96
2023-02-14T19:07:38.453Z,71.27
2023-02-14T19:12:43.294Z,72.08
2023-02-14T19:17:47.282Z,72.08
2023-02-14T19:22:51.211Z,72.09
2023-02-14T19:27:56.039Z,71.99
2023-02-14T19:33:00.115Z,72.08
2023-02-14T19:38:05.724Z,72.09
2023-02-14T19:43:09.475Z,71.72
2023-02-14T19:48:13.519Z,71.86
2023-02-14T19:53:17.238Z,71.97
2023-02-14T19:58:21.271Z,71.56
2023-02-14T20:03:25.332Z,71.66
2023-02-14T20:08:28.980Z,72.10
2023-02-14T20:13:32.933Z,72.17
2023-02-14T20:18:39.754Z,72.24
2023-02-14T20:23:43.711Z,71.29
2023-02-14T20:28:49.703Z,72.12
2023-02-14T20:33:54.433Z,71.92
2023-02-14T20:39:01.013Z,72.00
2023-02-14T20:44:12.201Z,72.02
2023-02-14T20:49:17.885Z,71.56
2023-02-14T20:54:24.504Z,71.47
2023-02-14T20:59:29.391Z,71.48
2023-02-14T21:04:33.052Z,71.48
2023-02-14T21:09:38.624Z,71.78
2023-02-14T21:14:42.703Z,71.90
2023-02-14T21:19:46.907Z,71.32
2023-02-14T21:24:50.679Z,71.81
2023-02-14T21:29:54.815Z,72.21
2023-02-14T21:34:58.662Z,72.00
2023-02-14T21:40:03.260Z,71.54
2023-02-14T21:45:26.117Z,71.63
2023-02-14T21:50:32.803Z,71.70
2023-02-14T21:55:37.846Z,72.12
2023-02-14T22:00:45.867Z,71.95
2023-02-14T22:05:49.600Z,71.74
2023-02-14T22:10:53.434Z,71.53
2023-02-14T22:16:07.042Z,72.02
2023-02-14T22:21:14.771Z,71.34
2023-02-14T22:26:23.923Z,71.61
2023-02-14T22:31:31.195Z,71.67
2023-02-14T22:36:35.792Z,71.10
2023-02-14T22:41:40.288Z,71.65
2023-02-14T22:46:44.315Z,71.35
2023-02-14T22:51:48.202Z,71.60
2023-02-14T22:56:53.275Z,71.68
2023-02-14T23:01:57.201Z,71.86
2023-02-14T23:07:01.188Z,71.54
2023-02-14T23:12:25.342Z,71.27
2023-02-14T23:17:48.441Z,71.58
2023-02-14T23:22:52.309Z,71.59
2023-02-14T23:27:56.185Z,71.63
2023-02-14T23:33:00.022Z,71.67
2023-02-14T23:38:03.982Z,71.50
2023-02-14T23:43:07.697Z,71.46
2023-02-14T23:48:11.697Z,71.33
2023-02-14T23:53:16.579Z,71.06
2023-02-14T23:58:20.370Z,70.98
